Time;durP1;ratioP1;P1;durP2;ratioP2;P2;SDS_P1;SDS_P2;PMS_P1;PMS_P2;Temp;Humidity;BMP_temperature;BMP_pressure;BME280_temperature;BME280_humidity;BME280_pressure;Samples;Min_cycle;Max_cycle;Signal;HPM_P1;HPM_P2
2023/05/11 00:02:12;;;;;;;19.70;11.40;;;11.40;99.90;;;;;;5129524;28;20165;-83
2023/05/11 00:04:39;;;;;;;19.65;11.10;;;11.40;99.90;;;;;;5113030;28;20044;-82
2023/05/11 00:07:06;;;;;;;22.65;11.50;;;11.30;99.90;;;;;;5113094;28;20040;-83
2023/05/11 00:09:34;;;;;;;20.55;12.48;;;11.40;99.90;;;;;;5112867;28;20043;-83
2023/05/11 00:12:01;;;;;;;22.30;11.30;;;11.40;99.90;;;;;;5112857;28;20488;-83
2023/05/11 00:14:28;;;;;;;19.52;11.30;;;11.40;99.90;;;;;;5112930;28;20180;-83
2023/05/11 00:16:55;;;;;;;20.98;12.65;;;11.40;99.90;;;;;;5096043;28;20130;-83
2023/05/11 00:19:21;;;;;;;21.38;12.07;;;11.40;99.90;;;;;;5112378;28;20035;-83
2023/05/11 00:21:48;;;;;;;20.95;12.32;;;11.40;99.90;;;;;;5095879;28;20093;-83
2023/05/11 00:24:15;;;;;;;22.13;12.20;;;11.30;99.90;;;;;;5118232;28;20074;-83
2023/05/11 00:26:41;;;;;;;19.40;11.00;;;11.30;99.90;;;;;;5128171;28;20039;-83
2023/05/11 00:29:08;;;;;;;20.67;11.45;;;11.30;99.90;;;;;;5116832;28;20468;-83
2023/05/11 00:31:36;;;;;;;22.00;12.07;;;11.30;99.90;;;;;;5123654;28;20523;-83
2023/05/11 00:34:02;;;;;;;23.67;12.23;;;11.30;99.90;;;;;;5113146;28;20082;-83
2023/05/11 00:36:29;;;;;;;22.55;12.43;;;11.30;99.90;;;;;;5112811;28;20067;-83
2023/05/11 00:38:56;;;;;;;22.15;13.13;;;11.30;99.90;;;;;;5095884;28;20062;-83
2023/05/11 00:41:22;;;;;;;22.55;12.85;;;11.20;99.90;;;;;;5103453;28;20039;-83
2023/05/11 00:43:49;;;;;;;24.65;13.35;;;11.30;99.90;;;;;;5112748;28;20039;-83
2023/05/11 00:46:16;;;;;;;23.73;13.73;;;11.30;99.90;;;;;;5112571;28;20566;-83
2023/05/11 00:48:43;;;;;;;22.70;12.80;;;11.30;99.90;;;;;;5122464;28;20039;-82
2023/05/11 00:51:11;;;;;;;24.25;13.20;;;11.30;99.90;;;;;;5129222;28;20071;-83
2023/05/11 00:53:39;;;;;;;25.17;12.88;;;11.30;99.90;;;;;;5095729;28;20077;-82
2023/05/11 00:56:06;;;;;;;26.05;13.35;;;11.30;99.90;;;;;;5112295;28;20400;-83
2023/05/11 00:58:34;;;;;;;24.10;13.00;;;11.30;99.90;;;;;;5095553;28;20035;-83
2023/05/11 01:01:01;;;;;;;22.65;12.60;;;11.30;99.90;;;;;;5102270;27;20040;-83
2023/05/11 01:03:28;;;;;;;22.58;13.35;;;11.30;99.90;;;;;;5119404;27;20038;-83
2023/05/11 01:06:03;;;;;;;23.33;12.25;;;11.30;99.90;;;;;;5116365;28;20422;-83
2023/05/11 01:08:49;;;;;;;23.48;13.10;;;11.30;99.90;;;;;;5149662;28;20664;-83
2023/05/11 01:11:28;;;;;;;25.92;13.23;;;11.20;99.90;;;;;;5132654;28;20096;-83
2023/05/11 01:14:15;;;;;;;26.13;14.05;;;11.30;99.90;;;;;;5132719;28;20259;-83
2023/05/11 01:16:45;;;;;;;24.27;13.43;;;11.20;99.90;;;;;;5132454;28;20122;-83
2023/05/11 01:19:35;;;;;;;24.17;13.00;;;11.20;99.90;;;;;;5116071;28;20050;-83
2023/05/11 01:22:18;;;;;;;23.48;12.60;;;11.20;99.90;;;;;;5148092;28;20044;-83
2023/05/11 01:25:11;;;;;;;24.83;12.60;;;11.20;99.90;;;;;;5132591;28;20036;-83
2023/05/11 01:28:22;;;;;;;21.75;13.27;;;11.20;99.90;;;;;;5149432;28;20051;-83
2023/05/11 01:30:58;;;;;;;23.20;12.73;;;11.20;99.90;;;;;;5149451;28;20521;-83
2023/05/11 01:33:31;;;;;;;23.85;12.73;;;11.10;99.90;;;;;;5132585;28;20092;-83
2023/05/11 01:36:05;;;;;;;20.42;11.90;;;11.20;99.90;;;;;;5132752;28;20069;-83
2023/05/11 01:38:34;;;;;;;26.02;12.18;;;11.10;99.90;;;;;;5131990;28;20407;-82
2023/05/11 01:41:07;;;;;;;22.30;12.77;;;11.10;99.90;;;;;;5132513;28;20082;-83
2023/05/11 01:43:36;;;;;;;22.98;12.90;;;11.10;99.90;;;;;;5142830;27;20077;-83
2023/05/11 01:46:05;;;;;;;21.67;12.27;;;11.10;99.90;;;;;;5152912;27;20064;-83
2023/05/11 01:48:37;;;;;;;23.80;12.85;;;11.10;99.90;;;;;;5152696;27;20043;-82
2023/05/11 01:51:06;;;;;;;22.63;13.00;;;11.10;99.90;;;;;;5143818;28;20050;-83
2023/05/11 01:53:36;;;;;;;22.00;12.80;;;11.10;99.90;;;;;;5131619;28;20503;-83
2023/05/11 01:56:05;;;;;;;24.83;13.57;;;11.10;99.90;;;;;;5149316;28;20043;-83
2023/05/11 01:58:37;;;;;;;25.08;13.02;;;11.10;99.90;;;;;;5131825;28;20468;-83
2023/05/11 02:01:05;;;;;;;27.30;13.75;;;11.00;99.90;;;;;;5115679;28;20031;-83
2023/05/11 02:03:35;;;;;;;24.50;12.98;;;11.00;99.90;;;;;;5131528;28;20040;-83
2023/05/11 02:06:04;;;;;;;28.95;13.82;;;11.00;99.90;;;;;;5131756;28;20072;-83
2023/05/11 02:08:32;;;;;;;26.55;13.07;;;10.90;99.90;;;;;;5131654;28;20036;-83
2023/05/11 02:11:01;;;;;;;24.63;13.00;;;10.90;99.90;;;;;;5115518;27;20418;-83
2023/05/11 02:13:29;;;;;;;22.88;12.05;;;10.90;99.90;;;;;;5130914;28;20047;-83
2023/05/11 02:15:57;;;;;;;25.50;13.15;;;10.90;99.90;;;;;;5114554;28;20031;-83
2023/05/11 02:18:25;;;;;;;25.80;12.43;;;10.90;99.90;;;;;;5114796;28;20048;-83
2023/05/11 02:20:53;;;;;;;28.35;13.07;;;11.00;99.90;;;;;;5097960;28;20395;-83
2023/05/11 02:23:22;;;;;;;20.90;11.25;;;10.90;99.90;;;;;;5133906;27;20032;-83
2023/05/11 02:25:55;;;;;;;16.65;9.95;;;11.00;99.90;;;;;;5134950;27;20061;-83
2023/05/11 02:28:22;;;;;;;16.25;9.30;;;11.00;99.90;;;;;;5151925;27;20043;-83
2023/05/11 02:30:53;;;;;;;19.90;9.85;;;11.00;99.90;;;;;;5117735;27;20445;-83
2023/05/11 02:33:24;;;;;;;19.20;9.63;;;11.00;99.90;;;;;;5150861;27;20065;-83
2023/05/11 02:35:54;;;;;;;18.88;9.75;;;11.00;99.90;;;;;;5151881;27;20046;-83
2023/05/11 02:38:28;;;;;;;19.33;10.48;;;11.00;99.90;;;;;;5151407;27;20130;-83
2023/05/11 02:41:01;;;;;;;19.20;9.85;;;11.00;99.90;;;;;;5151346;27;20543;-83
2023/05/11 02:43:32;;;;;;;19.27;10.57;;;10.90;99.90;;;;;;5150085;27;20046;-83
2023/05/11 02:46:02;;;;;;;22.92;10.98;;;11.00;99.90;;;;;;5151708;27;20035;-83
2023/05/11 02:48:35;;;;;;;20.73;10.38;;;11.10;99.90;;;;;;5168783;27;20130;-83
2023/05/11 02:51:05;;;;;;;20.98;11.02;;;11.10;99.90;;;;;;5151306;27;20103;-83
2023/05/11 02:53:34;;;;;;;19.70;10.68;;;11.10;99.90;;;;;;5134954;27;20092;-83
2023/05/11 02:56:01;;;;;;;19.63;10.93;;;11.10;99.90;;;;;;5134549;27;20088;-83
2023/05/11 02:58:29;;;;;;;19.52;10.50;;;11.10;99.90;;;;;;5134455;27;20031;-83
2023/05/11 03:00:55;;;;;;;20.33;11.10;;;11.10;99.90;;;;;;5117325;27;20043;-83
2023/05/11 03:03:23;;;;;;;21.77;10.65;;;11.10;99.90;;;;;;5117151;27;20050;-83
2023/05/11 03:05:51;;;;;;;21.23;10.98;;;11.10;99.90;;;;;;5133836;27;20050;-83
2023/05/11 03:08:18;;;;;;;21.23;10.70;;;11.10;99.90;;;;;;5134097;27;20074;-83
2023/05/11 03:10:45;;;;;;;21.80;11.43;;;11.10;99.90;;;;;;5116939;27;20053;-82
2023/05/11 03:13:12;;;;;;;29.58;11.27;;;11.00;99.90;;;;;;5164378;27;20035;-83
2023/05/11 03:15:40;;;;;;;24.92;11.85;;;11.00;99.90;;;;;;5130221;28;20044;-83
2023/05/11 03:18:07;;;;;;;24.35;11.43;;;11.00;99.90;;;;;;5130439;28;20471;-83
2023/05/11 03:20:37;;;;;;;26.58;11.88;;;11.00;99.90;;;;;;5113629;28;20035;-83
2023/05/11 03:23:06;;;;;;;22.05;11.35;;;11.00;99.90;;;;;;5129744;28;20031;-83
2023/05/11 03:25:33;;;;;;;28.52;11.25;;;11.00;99.90;;;;;;5150298;27;20069;-84
2023/05/11 03:28:02;;;;;;;27.88;11.02;;;11.00;99.90;;;;;;5116949;27;20035;-83
2023/05/11 03:30:30;;;;;;;22.30;11.73;;;11.00;99.90;;;;;;5134391;27;20031;-83
2023/05/11 03:32:56;;;;;;;30.10;10.68;;;11.00;99.90;;;;;;5116655;27;20100;-83
2023/05/11 03:35:28;;;;;;;21.17;11.38;;;10.90;99.90;;;;;;5133192;28;20064;-84
2023/05/11 03:37:56;;;;;;;24.92;12.00;;;10.90;99.90;;;;;;5148503;27;20039;-85
2023/05/11 03:40:23;;;;;;;22.13;12.07;;;11.00;99.90;;;;;;5116867;27;20047;-84
2023/05/11 03:42:55;;;;;;;20.15;10.60;;;10.90;99.90;;;;;;5116750;27;20408;-85
2023/05/11 03:45:24;;;;;;;25.55;11.30;;;11.00;99.90;;;;;;5150524;28;20054;-85
2023/05/11 03:47:53;;;;;;;21.98;11.57;;;11.00;99.90;;;;;;5150444;28;20517;-85
2023/05/11 03:50:20;;;;;;;23.58;11.70;;;10.90;99.90;;;;;;5150357;28;20039;-85
2023/05/11 03:52:48;;;;;;;24.63;11.20;;;11.00;99.90;;;;;;5149961;28;20046;-86
2023/05/11 03:55:15;;;;;;;20.83;10.73;;;11.00;99.90;;;;;;5150002;28;20047;-85
2023/05/11 03:57:42;;;;;;;22.45;10.55;;;10.90;99.90;;;;;;5115908;28;20525;-85
2023/05/11 04:00:10;;;;;;;22.70;10.43;;;10.90;99.90;;;;;;5133232;28;20452;-86
2023/05/11 04:02:37;;;;;;;22.77;10.95;;;10.90;99.90;;;;;;5133673;28;20126;-85
2023/05/11 04:05:11;;;;;;;22.92;10.25;;;10.90;99.90;;;;;;5116241;28;20122;-86
2023/05/11 04:07:38;;;;;;;29.00;10.52;;;10.90;99.90;;;;;;5125128;28;20042;-86
2023/05/11 04:10:05;;;;;;;21.35;9.35;;;10.90;99.90;;;;;;5129130;28;20505;-86
2023/05/11 04:12:32;;;;;;;21.48;9.98;;;10.90;99.90;;;;;;5096430;28;20044;-86
2023/05/11 04:14:59;;;;;;;19.70;9.35;;;10.90;99.90;;;;;;5112213;28;20047;-86
2023/05/11 04:17:25;;;;;;;17.10;8.90;;;11.00;99.90;;;;;;5099409;28;20028;-85
2023/05/11 04:19:52;;;;;;;18.17;9.57;;;11.00;99.90;;;;;;5115971;28;20073;-85
2023/05/11 04:22:19;;;;;;;15.38;8.57;;;11.00;99.90;;;;;;5116609;28;20035;-85
2023/05/11 04:24:45;;;;;;;18.00;9.07;;;11.00;99.90;;;;;;5149760;28;20070;-86
2023/05/11 04:27:12;;;;;;;16.75;9.48;;;11.00;99.90;;;;;;5116334;28;20843;-85
2023/05/11 04:29:39;;;;;;;19.45;9.70;;;11.10;99.90;;;;;;5114272;28;20046;-86
2023/05/11 04:32:05;;;;;;;17.65;9.60;;;11.00;99.90;;;;;;5116398;28;20050;-85
2023/05/11 04:34:32;;;;;;;18.70;8.85;;;11.00;99.90;;;;;;5152940;27;20044;-86
2023/05/11 04:36:59;;;;;;;15.98;8.50;;;11.00;99.90;;;;;;5119615;27;20483;-85
2023/05/11 04:39:26;;;;;;;14.82;7.93;;;10.90;99.90;;;;;;5114430;28;20062;-85
2023/05/11 04:41:52;;;;;;;17.30;8.70;;;11.00;99.90;;;;;;5099358;28;20040;-85
2023/05/11 04:44:19;;;;;;;19.25;8.82;;;11.00;99.90;;;;;;5099713;28;20156;-86
2023/05/11 04:46:46;;;;;;;20.60;8.18;;;11.10;99.90;;;;;;5099775;28;20040;-85
2023/05/11 04:49:12;;;;;;;18.25;8.65;;;11.10;99.90;;;;;;5099678;28;20043;-85
2023/05/11 04:51:39;;;;;;;15.63;8.38;;;11.10;99.90;;;;;;5116630;28;20096;-85
2023/05/11 04:54:06;;;;;;;15.98;8.00;;;11.10;99.90;;;;;;5099213;28;20047;-86
2023/05/11 04:56:32;;;;;;;15.75;8.18;;;11.10;99.90;;;;;;5099322;28;20044;-85
2023/05/11 04:58:59;;;;;;;17.13;8.85;;;11.10;99.90;;;;;;5100066;27;20118;-85
2023/05/11 05:01:25;;;;;;;17.00;9.10;;;11.10;99.90;;;;;;5119939;27;20091;-85
2023/05/11 05:03:52;;;;;;;17.40;8.57;;;11.10;99.90;;;;;;5119146;27;20049;-86
2023/05/11 05:06:19;;;;;;;13.88;8.27;;;11.10;99.90;;;;;;5119420;27;20043;-86
2023/05/11 05:08:45;;;;;;;14.93;8.25;;;11.10;99.90;;;;;;5119339;27;20126;-85
2023/05/11 05:11:12;;;;;;;15.40;9.35;;;11.20;99.90;;;;;;5118895;27;20043;-86
2023/05/11 05:13:39;;;;;;;13.90;8.27;;;11.20;99.90;;;;;;5119533;27;20035;-85
2023/05/11 05:16:06;;;;;;;16.30;9.25;;;11.20;99.90;;;;;;5119907;27;20031;-85
2023/05/11 05:18:33;;;;;;;17.15;9.73;;;11.10;99.90;;;;;;5119605;27;20049;-86
2023/05/11 05:21:00;;;;;;;18.58;9.23;;;11.10;99.90;;;;;;5152817;27;20095;-85
2023/05/11 05:23:27;;;;;;;18.42;10.32;;;11.10;99.90;;;;;;5119712;27;20130;-85
2023/05/11 05:25:53;;;;;;;20.83;10.00;;;11.10;99.90;;;;;;5136600;27;20073;-86
2023/05/11 05:28:20;;;;;;;16.95;10.00;;;11.10;99.90;;;;;;5136521;27;20035;-85
2023/05/11 05:30:46;;;;;;;17.23;10.07;;;11.10;99.90;;;;;;5146960;28;20087;-85
2023/05/11 05:33:13;;;;;;;18.17;9.30;;;11.20;99.90;;;;;;5125498;27;20043;-85
2023/05/11 05:35:42;;;;;;;15.93;9.30;;;11.10;99.90;;;;;;5136123;27;20041;-85
2023/05/11 05:38:09;;;;;;;15.82;9.43;;;11.20;99.90;;;;;;5161023;27;20039;-85
2023/05/11 05:40:38;;;;;;;18.92;10.43;;;11.20;99.90;;;;;;5115742;27;20128;-85
2023/05/11 05:43:05;;;;;;;16.88;9.82;;;11.20;99.90;;;;;;5098904;28;20217;-85
2023/05/11 05:45:32;;;;;;;17.80;9.98;;;11.20;99.90;;;;;;5114834;28;20039;-85
2023/05/11 05:48:01;;;;;;;19.88;10.10;;;11.20;99.90;;;;;;5098265;28;20039;-85
2023/05/11 05:50:28;;;;;;;17.48;9.85;;;11.20;99.90;;;;;;5099439;28;20470;-85
2023/05/11 05:52:55;;;;;;;17.67;10.32;;;11.20;99.90;;;;;;5116667;27;20066;-85
2023/05/11 05:55:21;;;;;;;15.90;9.73;;;11.30;99.90;;;;;;5118517;27;20035;-85
2023/05/11 05:57:49;;;;;;;17.95;9.52;;;11.30;99.90;;;;;;5118748;27;20119;-85
2023/05/11 06:00:16;;;;;;;17.10;9.32;;;11.30;99.90;;;;;;5152722;27;20039;-86
2023/05/11 06:02:42;;;;;;;16.90;9.05;;;11.30;99.90;;;;;;5139049;28;20093;-86
2023/05/11 06:05:09;;;;;;;19.15;9.25;;;11.30;99.90;;;;;;5098431;28;20043;-85
2023/05/11 06:07:36;;;;;;;16.20;9.40;;;11.30;99.90;;;;;;5131770;28;20035;-85
2023/05/11 06:10:03;;;;;;;18.63;9.32;;;11.30;99.90;;;;;;5114757;28;20391;-86
2023/05/11 06:12:30;;;;;;;15.13;8.13;;;11.30;99.90;;;;;;5123432;27;20483;-86
2023/05/11 06:14:56;;;;;;;13.75;7.72;;;11.30;99.90;;;;;;5118555;27;20095;-85
2023/05/11 06:17:23;;;;;;;15.02;8.10;;;11.30;99.90;;;;;;5135307;27;20144;-86
2023/05/11 06:19:50;;;;;;;13.85;7.72;;;11.30;99.90;;;;;;5135341;27;20489;-86
2023/05/11 06:22:17;;;;;;;18.20;8.13;;;11.30;99.90;;;;;;5152140;27;20027;-85
2023/05/11 06:24:43;;;;;;;13.73;7.65;;;11.30;99.90;;;;;;5118306;27;20078;-85
2023/05/11 06:27:10;;;;;;;15.80;8.40;;;11.40;99.90;;;;;;5117865;27;20046;-86
2023/05/11 06:29:37;;;;;;;13.23;7.88;;;11.40;99.90;;;;;;5134891;27;20478;-86
2023/05/11 06:32:04;;;;;;;11.52;7.20;;;11.40;99.90;;;;;;5151733;27;20035;-86
2023/05/11 06:34:31;;;;;;;15.43;7.90;;;11.40;99.90;;;;;;5131966;27;20031;-86
2023/05/11 06:36:58;;;;;;;12.98;7.30;;;11.50;99.90;;;;;;5098138;28;20051;-86
2023/05/11 06:39:25;;;;;;;11.70;7.10;;;11.60;99.90;;;;;;5097021;28;20060;-86
2023/05/11 06:41:52;;;;;;;12.32;7.13;;;11.60;99.90;;;;;;5115086;28;20483;-86
2023/05/11 06:44:19;;;;;;;11.90;7.00;;;11.60;99.90;;;;;;5109952;27;20077;-86
2023/05/11 06:46:46;;;;;;;11.70;6.90;;;11.60;99.90;;;;;;5118438;27;20043;-86
2023/05/11 06:49:12;;;;;;;10.88;6.68;;;11.60;99.90;;;;;;5135076;27;20077;-86
2023/05/11 06:51:39;;;;;;;11.32;7.05;;;11.60;99.90;;;;;;5117974;27;20035;-86
2023/05/11 06:54:06;;;;;;;11.57;6.75;;;11.70;99.90;;;;;;5117984;27;20084;-86
2023/05/11 06:56:33;;;;;;;11.18;7.13;;;11.70;99.90;;;;;;5117228;28;20062;-86
2023/05/11 06:59:00;;;;;;;11.75;7.32;;;11.80;99.90;;;;;;5135402;27;20027;-86
2023/05/11 07:01:27;;;;;;;12.70;7.05;;;11.90;99.90;;;;;;5117968;27;20115;-86
2023/05/11 07:03:54;;;;;;;11.82;7.82;;;11.90;99.90;;;;;;5134575;27;20043;-89
2023/05/11 07:06:21;;;;;;;11.73;7.40;;;12.00;99.90;;;;;;5131871;28;20035;-87
2023/05/11 07:08:47;;;;;;;14.32;7.43;;;12.00;99.90;;;;;;5114660;28;20050;-88
2023/05/11 07:11:14;;;;;;;11.02;7.03;;;12.00;99.90;;;;;;5098217;28;20051;-87
2023/05/11 07:13:41;;;;;;;12.05;6.97;;;12.10;99.90;;;;;;5097345;28;20046;-86
2023/05/11 07:16:08;;;;;;;10.98;6.82;;;12.10;99.90;;;;;;5098294;28;20031;-89
2023/05/11 07:18:34;;;;;;;11.82;6.93;;;12.10;99.90;;;;;;5114838;28;20040;-88
2023/05/11 07:21:01;;;;;;;12.43;7.45;;;12.20;99.90;;;;;;5114967;28;20042;-88
2023/05/11 07:23:28;;;;;;;11.65;7.47;;;12.30;99.90;;;;;;5114717;28;20126;-87
2023/05/11 07:25:56;;;;;;;10.40;7.03;;;12.30;99.90;;;;;;5112393;27;20114;-88
2023/05/11 07:28:23;;;;;;;10.48;6.78;;;12.40;99.90;;;;;;5134481;27;20125;-88
2023/05/11 07:30:50;;;;;;;11.75;6.80;;;12.40;99.90;;;;;;5135074;27;20039;-87
2023/05/11 07:33:17;;;;;;;11.82;7.10;;;12.50;99.90;;;;;;5130901;28;20043;-88
2023/05/11 07:35:44;;;;;;;9.75;6.45;;;12.60;99.90;;;;;;5139547;28;20126;-88
2023/05/11 07:38:12;;;;;;;11.05;7.90;;;12.60;99.90;;;;;;5110821;28;20118;-87
2023/05/11 07:40:39;;;;;;;9.68;6.90;;;12.70;99.90;;;;;;5097874;28;20055;-87
2023/05/11 07:43:06;;;;;;;11.40;6.97;;;12.70;99.90;;;;;;5115733;27;20046;-87
2023/05/11 07:45:32;;;;;;;10.25;6.90;;;12.70;99.90;;;;;;5116936;27;20039;-86
2023/05/11 07:47:59;;;;;;;11.02;7.38;;;12.70;99.90;;;;;;5117193;28;20049;-86
2023/05/11 07:50:26;;;;;;;11.18;6.72;;;12.70;99.90;;;;;;5117090;28;20035;-87
2023/05/11 07:52:52;;;;;;;11.10;6.78;;;12.70;99.90;;;;;;5150931;28;20096;-87
2023/05/11 07:55:23;;;;;;;10.32;6.80;;;12.60;99.90;;;;;;5112787;28;20381;-85
2023/05/11 07:57:52;;;;;;;10.68;6.20;;;12.70;99.90;;;;;;5126156;28;20306;-84
2023/05/11 08:00:20;;;;;;;10.82;7.00;;;12.70;99.90;;;;;;5146283;28;20408;-82
2023/05/11 08:02:47;;;;;;;12.68;6.82;;;12.70;99.90;;;;;;5129506;28;20078;-82
2023/05/11 08:05:13;;;;;;;9.80;6.38;;;12.70;99.90;;;;;;5132913;28;20762;-82
2023/05/11 08:07:40;;;;;;;10.98;6.65;;;12.80;99.90;;;;;;5132897;27;20042;-82
2023/05/11 08:10:08;;;;;;;9.90;6.53;;;12.80;99.90;;;;;;5120335;27;20091;-82
2023/05/11 08:12:35;;;;;;;9.02;6.35;;;12.90;99.90;;;;;;5154073;27;20042;-82
2023/05/11 08:15:03;;;;;;;10.55;6.43;;;12.90;99.90;;;;;;5141594;28;20553;-82
2023/05/11 08:17:31;;;;;;;9.70;6.30;;;12.90;99.90;;;;;;5116965;28;20077;-82
2023/05/11 08:19:57;;;;;;;10.63;7.15;;;12.90;99.90;;;;;;5133956;28;20042;-82
2023/05/11 08:22:24;;;;;;;9.23;5.88;;;13.00;99.90;;;;;;5116355;28;20127;-81
2023/05/11 08:24:51;;;;;;;10.90;6.22;;;13.10;99.90;;;;;;5104557;28;20430;-82
2023/05/11 08:27:17;;;;;;;9.52;6.20;;;13.20;99.90;;;;;;5140160;28;20065;-82
2023/05/11 08:29:44;;;;;;;9.55;5.38;;;13.20;99.90;;;;;;5116535;28;20126;-82
2023/05/11 08:32:11;;;;;;;8.02;4.97;;;13.40;99.90;;;;;;5116305;28;20043;-82
2023/05/11 08:34:38;;;;;;;7.65;4.80;;;13.50;99.90;;;;;;5132753;28;20123;-82
2023/05/11 08:37:05;;;;;;;7.10;4.60;;;13.60;99.90;;;;;;5134755;27;20435;-82
2023/05/11 08:39:35;;;;;;;7.38;4.35;;;13.60;99.90;;;;;;5119550;27;20047;-82
2023/05/11 08:42:04;;;;;;;6.70;4.32;;;13.70;99.90;;;;;;5136826;27;20043;-82
2023/05/11 08:44:33;;;;;;;7.68;4.82;;;13.80;99.90;;;;;;5120144;27;20741;-82
2023/05/11 08:47:00;;;;;;;7.38;4.70;;;13.80;99.90;;;;;;5150756;27;20122;-82
2023/05/11 08:49:27;;;;;;;7.88;4.90;;;13.70;99.90;;;;;;5136106;27;20510;-82
2023/05/11 08:51:54;;;;;;;7.97;5.18;;;13.70;99.90;;;;;;5136418;27;20066;-82
2023/05/11 08:54:21;;;;;;;8.57;5.10;;;13.60;99.90;;;;;;5119510;27;20043;-82
2023/05/11 08:56:50;;;;;;;9.45;5.18;;;13.60;99.90;;;;;;5116106;27;20133;-82
2023/05/11 08:59:18;;;;;;;7.95;4.78;;;13.60;99.90;;;;;;5136375;27;20376;-82
2023/05/11 09:01:46;;;;;;;10.90;5.63;;;13.60;99.90;;;;;;5153051;27;20039;-82
2023/05/11 09:04:15;;;;;;;8.57;5.32;;;13.60;99.90;;;;;;5136120;27;20039;-82
2023/05/11 09:06:42;;;;;;;11.35;6.03;;;13.60;99.90;;;;;;5114154;28;20061;-82
2023/05/11 09:09:09;;;;;;;8.82;5.35;;;13.70;99.90;;;;;;5145418;27;20042;-82
2023/05/11 09:11:39;;;;;;;8.98;5.60;;;13.80;99.90;;;;;;5138123;28;20044;-82
2023/05/11 09:14:06;;;;;;;8.15;5.35;;;13.70;99.90;;;;;;5106604;28;20082;-82
2023/05/11 09:16:33;;;;;;;8.93;5.68;;;13.70;99.90;;;;;;5115735;28;20777;-82
2023/05/11 09:19:01;;;;;;;9.27;5.72;;;13.70;99.90;;;;;;5141901;27;20042;-82
2023/05/11 09:21:30;;;;;;;10.20;5.80;;;13.70;99.90;;;;;;5151985;27;20031;-82
2023/05/11 09:24:00;;;;;;;10.15;5.88;;;13.70;99.90;;;;;;5152666;27;20039;-82
2023/05/11 09:26:28;;;;;;;8.95;5.70;;;13.80;99.90;;;;;;5135981;27;20111;-82
2023/05/11 09:28:59;;;;;;;8.93;5.57;;;13.80;99.90;;;;;;5122604;27;20442;-83
2023/05/11 09:31:36;;;;;;;10.07;6.20;;;13.90;99.90;;;;;;5152345;27;20043;-82
2023/05/11 09:34:18;;;;;;;9.88;5.47;;;13.80;99.90;;;;;;5152926;27;20452;-82
2023/05/11 09:36:50;;;;;;;9.75;6.10;;;13.90;99.90;;;;;;5152169;27;20414;-82
2023/05/11 09:39:18;;;;;;;9.45;5.80;;;13.90;99.90;;;;;;5162591;27;20051;-82
2023/05/11 09:41:44;;;;;;;9.45;5.80;;;14.00;99.90;;;;;;5131950;28;20043;-82
2023/05/11 09:44:15;;;;;;;8.75;5.60;;;14.10;99.90;;;;;;5132123;28;20040;-82
2023/05/11 09:46:43;;;;;;;8.52;5.05;;;14.10;99.90;;;;;;5145798;27;20046;-82
2023/05/11 09:49:11;;;;;;;8.18;4.82;;;14.30;99.90;;;;;;5135498;27;20046;-82
2023/05/11 09:51:39;;;;;;;9.40;5.80;;;14.30;99.90;;;;;;5155130;27;20042;-81
2023/05/11 09:54:20;;;;;;;9.20;5.35;;;14.40;99.90;;;;;;5133146;28;20040;-82
2023/05/11 09:56:57;;;;;;;8.88;5.40;;;14.50;99.90;;;;;;5131039;28;20564;-82
2023/05/11 09:59:38;;;;;;;8.38;5.22;;;14.60;99.90;;;;;;5132495;28;20095;-82
2023/05/11 10:02:24;;;;;;;9.65;5.32;;;14.60;99.90;;;;;;5148936;27;20062;-82
2023/05/11 10:04:53;;;;;;;9.80;5.20;;;14.80;99.90;;;;;;5151837;27;20035;-82
2023/05/11 10:07:31;;;;;;;8.27;4.90;;;14.90;99.90;;;;;;5135599;27;20092;-83
2023/05/11 10:10:01;;;;;;;8.70;5.13;;;15.00;99.90;;;;;;5169306;27;20039;-82
2023/05/11 10:12:31;;;;;;;10.07;5.30;;;15.10;99.90;;;;;;5152625;27;20494;-82
2023/05/11 10:15:04;;;;;;;9.18;5.18;;;15.10;99.90;;;;;;5135852;27;20130;-82
2023/05/11 10:17:31;;;;;;;7.38;4.70;;;15.20;99.90;;;;;;5131734;28;20031;-82
2023/05/11 10:19:58;;;;;;;7.63;4.88;;;15.30;99.90;;;;;;5115257;28;20039;-82
2023/05/11 10:22:27;;;;;;;8.20;4.97;;;15.30;99.90;;;;;;5131200;28;20154;-82
2023/05/11 10:24:56;;;;;;;9.35;4.72;;;15.40;99.90;;;;;;5114289;28;20495;-82
2023/05/11 10:27:24;;;;;;;7.28;4.60;;;15.40;99.90;;;;;;5148385;28;20040;-82
2023/05/11 10:29:51;;;;;;;8.10;4.82;;;15.40;99.90;;;;;;5130884;28;20047;-82
2023/05/11 10:32:19;;;;;;;7.55;4.70;;;15.30;99.90;;;;;;5125861;28;20040;-82
2023/05/11 10:34:47;;;;;;;8.35;4.80;;;15.40;99.90;;;;;;5115294;27;20059;-82
2023/05/11 10:37:15;;;;;;;7.10;4.20;;;15.50;99.90;;;;;;5151841;27;20097;-82
2023/05/11 10:39:44;;;;;;;6.95;3.95;;;15.60;99.90;;;;;;5134736;27;20043;-83
2023/05/11 10:42:36;;;;;;;7.35;3.80;;;15.80;99.90;;;;;;5143751;27;20026;-82
2023/05/11 10:45:28;;;;;;;5.70;3.80;;;16.10;99.90;;;;;;5134550;27;20055;-83
2023/05/11 10:48:24;;;;;;;7.25;4.18;;;16.20;99.90;;;;;;5133104;28;20129;-83
2023/05/11 10:51:15;;;;;;;6.85;4.18;;;16.20;99.90;;;;;;5117325;28;20058;-83
2023/05/11 10:53:45;;;;;;;6.47;4.20;;;16.20;99.90;;;;;;5130295;28;20043;-83
2023/05/11 10:56:42;;;;;;;6.57;3.70;;;16.10;99.90;;;;;;5137110;27;20071;-82
2023/05/11 10:59:24;;;;;;;6.57;4.00;;;16.20;99.90;;;;;;5137594;28;20031;-82
2023/05/11 11:01:53;;;;;;;6.18;4.18;;;16.20;99.90;;;;;;5133086;27;20063;-83
2023/05/11 11:04:20;;;;;;;5.10;3.65;;;16.10;99.90;;;;;;5151501;27;20039;-83
2023/05/11 11:07:02;;;;;;;4.75;3.28;;;16.20;99.90;;;;;;5106725;28;20065;-83
2023/05/11 11:09:48;;;;;;;5.55;3.70;;;16.30;99.90;;;;;;5130856;28;20085;-82
2023/05/11 11:12:15;;;;;;;5.50;3.55;;;16.20;99.90;;;;;;5147555;28;20047;-83
2023/05/11 11:14:54;;;;;;;6.38;3.10;;;16.30;99.90;;;;;;5129838;28;20050;-83
2023/05/11 11:17:22;;;;;;;5.40;2.58;;;16.30;99.90;;;;;;5166782;27;20461;-82
2023/05/11 11:19:48;;;;;;;5.25;3.10;;;16.50;99.90;;;;;;5137347;28;20032;-82
2023/05/11 11:22:33;;;;;;;4.85;2.70;;;16.60;99.90;;;;;;5123170;27;20039;-82
2023/05/11 11:25:01;;;;;;;4.90;3.10;;;16.80;99.90;;;;;;5129909;28;20047;-82
2023/05/11 11:27:40;;;;;;;5.38;3.28;;;16.70;99.90;;;;;;5133087;27;20035;-83
2023/05/11 11:30:30;;;;;;;4.13;2.47;;;16.80;99.90;;;;;;5136271;28;20039;-83
2023/05/11 11:33:12;;;;;;;6.30;2.80;;;16.70;99.90;;;;;;5115840;27;21779;-83
2023/05/11 11:35:38;;;;;;;5.30;2.53;;;16.70;99.90;;;;;;5137851;28;20036;-83
2023/05/11 11:38:07;;;;;;;3.55;2.20;;;16.70;99.90;;;;;;5137408;28;20047;-83
2023/05/11 11:40:35;;;;;;;5.80;2.15;;;16.70;99.90;;;;;;5134545;28;20398;-83
2023/05/11 11:43:18;;;;;;;4.00;2.45;;;16.70;99.90;;;;;;5143333;27;20039;-82
2023/05/11 11:45:55;;;;;;;5.75;2.78;;;16.70;99.90;;;;;;5149663;28;20407;-83
2023/05/11 11:48:28;;;;;;;4.57;2.58;;;16.70;99.90;;;;;;5149468;28;20035;-83
2023/05/11 11:51:07;;;;;;;3.72;2.10;;;16.60;99.90;;;;;;5149758;28;20035;-83
2023/05/11 11:53:36;;;;;;;4.03;2.30;;;16.50;99.90;;;;;;5149835;28;20515;-83
2023/05/11 11:56:05;;;;;;;4.60;2.40;;;16.60;99.90;;;;;;5154842;28;20038;-82
2023/05/11 11:58:50;;;;;;;5.28;2.60;;;16.60;99.90;;;;;;5129970;28;20044;-81
2023/05/11 12:01:18;;;;;;;7.38;2.40;;;16.50;99.90;;;;;;5136450;28;20478;-81
2023/05/11 12:03:52;;;;;;;4.70;2.38;;;16.60;99.90;;;;;;5149897;28;20395;-81
2023/05/11 12:06:21;;;;;;;6.43;2.17;;;16.70;99.90;;;;;;5150346;28;20130;-81
2023/05/11 12:08:48;;;;;;;4.68;2.25;;;16.60;99.90;;;;;;5149796;28;20093;-82
2023/05/11 12:11:16;;;;;;;5.97;2.58;;;16.70;99.90;;;;;;5116605;28;20739;-81
2023/05/11 12:13:44;;;;;;;4.30;2.47;;;16.70;99.90;;;;;;5133168;28;20032;-81
2023/05/11 12:16:15;;;;;;;5.63;2.60;;;16.60;99.90;;;;;;5132322;28;20073;-81
2023/05/11 12:18:55;;;;;;;3.97;2.72;;;16.50;99.90;;;;;;5167280;28;20100;-81
2023/05/11 12:21:25;;;;;;;4.68;2.50;;;16.50;99.90;;;;;;5167404;28;20479;-81
2023/05/11 12:23:57;;;;;;;4.60;2.90;;;16.60;99.90;;;;;;5149454;28;20066;-81
2023/05/11 12:26:26;;;;;;;4.95;2.95;;;16.50;99.90;;;;;;5150345;28;20049;-81
2023/05/11 12:29:06;;;;;;;5.72;2.95;;;16.60;99.90;;;;;;5149496;28;20091;-81
2023/05/11 12:31:41;;;;;;;6.03;3.28;;;16.50;99.90;;;;;;5139818;28;20537;-81
2023/05/11 12:34:15;;;;;;;7.27;3.90;;;16.70;99.90;;;;;;5129320;28;20857;-81
2023/05/11 12:36:47;;;;;;;7.65;3.80;;;16.60;99.90;;;;;;5133496;28;20283;-81
2023/05/11 12:39:25;;;;;;;6.95;4.40;;;16.80;99.90;;;;;;5149267;28;20468;-81
2023/05/11 12:41:54;;;;;;;6.82;4.43;;;16.60;99.90;;;;;;5133083;28;20035;-82
2023/05/11 12:44:22;;;;;;;6.80;4.18;;;16.50;99.90;;;;;;5133387;28;20506;-81
2023/05/11 12:46:49;;;;;;;7.93;4.25;;;16.60;99.90;;;;;;5133337;28;20039;-81
2023/05/11 12:49:22;;;;;;;9.65;4.53;;;16.50;99.90;;;;;;5149616;28;20406;-81
2023/05/11 12:51:58;;;;;;;7.43;4.22;;;16.50;99.90;;;;;;5158690;28;20044;-81